createdAt,value
2022-11-27T00:01:23.349Z,25.90
2022-11-27T00:06:19.646Z,21.20
2022-11-27T00:08:47.004Z,20.35
2022-11-27T00:11:16.649Z,18.10
2022-11-27T00:13:43.224Z,15.75
2022-11-27T00:16:10.382Z,16.95
2022-11-27T00:18:37.113Z,16.33
2022-11-27T00:21:19.031Z,12.35
2022-11-27T00:23:45.702Z,14.30
2022-11-27T00:26:12.220Z,14.13
2022-11-27T00:28:38.708Z,11.05
2022-11-27T00:31:12.685Z,11.45
2022-11-27T00:33:39.156Z,11.27
2022-11-27T00:36:07.729Z,10.75
2022-11-27T00:38:38.759Z,10.10
2022-11-27T00:41:06.755Z,9.40
2022-11-27T00:43:43.521Z,11.25
2022-11-27T00:46:14.944Z,10.70
2022-11-27T00:48:42.703Z,11.18
2022-11-27T00:51:12.499Z,11.52
2022-11-27T00:53:39.632Z,12.35
2022-11-27T00:56:06.283Z,12.07
2022-11-27T00:58:32.748Z,12.27
2022-11-27T01:01:02.132Z,12.18
2022-11-27T01:03:29.725Z,11.07
2022-11-27T01:05:56.444Z,16.33
2022-11-27T01:08:23.261Z,13.82
2022-11-27T01:10:55.264Z,12.27
2022-11-27T01:13:30.385Z,13.05
2022-11-27T01:16:04.246Z,12.30
2022-11-27T01:18:31.246Z,13.60
2022-11-27T01:20:58.091Z,10.35
2022-11-27T01:23:24.599Z,12.68
2022-11-27T01:25:53.703Z,12.55
2022-11-27T01:28:22.183Z,12.18
2022-11-27T01:30:49.371Z,15.38
2022-11-27T01:33:16.447Z,13.85
2022-11-27T01:35:42.916Z,12.60
2022-11-27T01:38:09.419Z,14.75
2022-11-27T01:40:35.856Z,16.10
2022-11-27T01:43:02.338Z,15.00
2022-11-27T01:45:28.893Z,16.58
2022-11-27T01:47:59.292Z,10.98
2022-11-27T01:50:30.074Z,11.57
2022-11-27T01:53:02.668Z,14.02
2022-11-27T01:55:35.637Z,11.85
2022-11-27T01:58:08.223Z,10.93
2022-11-27T02:00:34.959Z,8.27
2022-11-27T02:03:01.576Z,8.20
2022-11-27T02:05:29.238Z,9.15
2022-11-27T02:07:59.018Z,8.65
2022-11-27T02:10:38.156Z,8.52
2022-11-27T02:13:11.502Z,8.95
2022-11-27T02:15:46.819Z,7.82
2022-11-27T02:18:33.133Z,9.60
2022-11-27T02:21:10.807Z,8.63
2022-11-27T02:23:56.683Z,7.75
2022-11-27T02:26:41.892Z,8.50
2022-11-27T02:29:13.779Z,11.40
2022-11-27T02:31:51.706Z,11.80
2022-11-27T02:34:43.312Z,13.60
2022-11-27T02:40:08.090Z,13.38
2022-11-27T02:42:41.217Z,16.13
2022-11-27T02:45:12.532Z,13.20
2022-11-27T02:47:40.854Z,9.35
2022-11-27T02:50:12.035Z,8.45
2022-11-27T02:52:39.986Z,9.48
2022-11-27T02:55:11.214Z,10.40
2022-11-27T02:57:40.162Z,9.88
2022-11-27T03:00:07.856Z,10.20
2022-11-27T03:02:39.625Z,10.07
2022-11-27T03:05:09.227Z,12.02
2022-11-27T03:07:41.793Z,12.38
2022-11-27T03:10:24.319Z,12.27
2022-11-27T03:12:51.964Z,14.32
2022-11-27T03:15:20.940Z,15.13
2022-11-27T03:18:01.044Z,11.65
2022-11-27T03:20:32.764Z,14.23
2022-11-27T03:22:59.204Z,15.00
2022-11-27T03:25:25.634Z,11.73
2022-11-27T03:27:58.177Z,11.32
2022-11-27T03:30:24.814Z,10.43
2022-11-27T03:32:51.371Z,13.52
2022-11-27T03:35:21.699Z,12.15
2022-11-27T03:37:48.653Z,12.40
2022-11-27T03:40:16.273Z,13.68
2022-11-27T03:43:07.274Z,12.57
2022-11-27T03:45:55.299Z,15.07
2022-11-27T03:48:50.135Z,12.88
2022-11-27T03:51:41.611Z,11.18
2022-11-27T03:54:21.789Z,13.18
2022-11-27T03:57:20.490Z,13.45
2022-11-27T03:59:51.468Z,16.73
2022-11-27T04:02:31.698Z,12.88
2022-11-27T04:04:59.064Z,10.98
2022-11-27T04:07:25.532Z,11.38
2022-11-27T04:09:51.948Z,10.02
2022-11-27T04:12:18.390Z,12.88
2022-11-27T04:14:44.792Z,13.02
2022-11-27T04:17:11.267Z,10.70
2022-11-27T04:19:37.652Z,14.65
2022-11-27T04:22:04.113Z,10.70
2022-11-27T04:24:30.519Z,9.73
2022-11-27T04:26:56.897Z,12.85
2022-11-27T04:29:23.319Z,8.45
2022-11-27T04:31:49.830Z,11.05
2022-11-27T04:34:16.248Z,8.65
2022-11-27T04:36:42.793Z,9.15
2022-11-27T04:39:09.277Z,11.95
2022-11-27T04:41:35.686Z,9.07
2022-11-27T04:44:02.125Z,7.55
2022-11-27T04:46:28.568Z,7.70
2022-11-27T04:48:54.975Z,7.15
2022-11-27T04:51:21.394Z,8.13
2022-11-27T04:53:47.786Z,7.38
2022-11-27T04:56:14.555Z,6.45
2022-11-27T04:58:41.074Z,7.53
2022-11-27T05:01:09.280Z,6.93
2022-11-27T05:03:36.012Z,6.65
2022-11-27T05:06:03.208Z,7.20
2022-11-27T05:08:31.595Z,5.80
2022-11-27T05:11:00.304Z,6.50
2022-11-27T05:13:26.890Z,6.57
2022-11-27T05:15:53.319Z,7.22
2022-11-27T05:18:19.769Z,6.88
2022-11-27T05:20:46.196Z,6.10
2022-11-27T05:23:12.590Z,6.53
2022-11-27T05:25:39.380Z,6.25
2022-11-27T05:28:05.795Z,6.03
2022-11-27T05:30:32.287Z,6.10
2022-11-27T05:32:58.691Z,5.15
2022-11-27T05:35:25.100Z,5.00
2022-11-27T05:37:51.472Z,5.65
2022-11-27T05:40:17.912Z,6.07
2022-11-27T05:42:44.322Z,5.20
2022-11-27T05:45:10.901Z,5.72
2022-11-27T05:47:37.315Z,5.15
2022-11-27T05:50:03.972Z,5.32
2022-11-27T05:52:30.423Z,5.47
2022-11-27T05:54:56.861Z,5.50
2022-11-27T05:57:23.443Z,6.18
2022-11-27T05:59:49.881Z,5.82
2022-11-27T06:02:21.589Z,5.82
2022-11-27T06:04:50.499Z,5.80
2022-11-27T06:07:17.173Z,6.35
2022-11-27T06:09:43.863Z,6.10
2022-11-27T06:12:10.755Z,5.80
2022-11-27T06:14:37.144Z,5.40
2022-11-27T06:17:03.759Z,7.20
2022-11-27T06:19:30.562Z,8.40
2022-11-27T06:21:56.995Z,7.35
2022-11-27T06:24:23.385Z,6.82
2022-11-27T06:26:49.809Z,8.10
2022-11-27T06:29:16.209Z,7.22
2022-11-27T06:31:42.638Z,12.05
2022-11-27T06:34:11.533Z,9.15
2022-11-27T06:36:40.664Z,12.82
2022-11-27T06:39:10.080Z,11.00
2022-11-27T06:41:36.543Z,10.77
2022-11-27T06:44:03.429Z,9.00
2022-11-27T06:46:30.281Z,10.68
2022-11-27T06:48:57.732Z,11.93
2022-11-27T06:51:26.851Z,9.73
2022-11-27T06:53:53.805Z,9.55
2022-11-27T06:56:24.000Z,9.07
2022-11-27T06:58:52.306Z,12.00
2022-11-27T07:01:19.166Z,14.27
2022-11-27T07:03:45.661Z,12.35
2022-11-27T07:06:18.076Z,10.13
2022-11-27T07:08:44.485Z,11.32
2022-11-27T07:11:18.342Z,12.88
2022-11-27T07:13:49.755Z,15.80
2022-11-27T07:18:46.142Z,10.95
2022-11-27T07:21:12.744Z,12.07
2022-11-27T07:23:39.451Z,8.75
2022-11-27T07:26:07.675Z,12.43
2022-11-27T07:28:34.584Z,10.20
2022-11-27T07:31:01.528Z,12.10
2022-11-27T07:33:28.067Z,11.82
2022-11-27T07:36:03.253Z,19.60
2022-11-27T07:38:29.695Z,11.57
2022-11-27T07:40:59.438Z,8.95
2022-11-27T07:43:25.843Z,8.48
2022-11-27T07:45:52.246Z,8.68
2022-11-27T07:48:18.917Z,16.52
2022-11-27T07:50:45.331Z,13.43
2022-11-27T07:53:11.733Z,7.70
2022-11-27T07:55:39.628Z,10.65
2022-11-27T07:58:07.757Z,10.32
2022-11-27T08:00:35.548Z,10.23
2022-11-27T08:03:02.462Z,9.07
2022-11-27T08:05:29.337Z,7.68
2022-11-27T08:07:56.071Z,7.30
2022-11-27T08:10:22.582Z,7.05
2022-11-27T08:12:49.065Z,6.60
2022-11-27T08:15:15.453Z,7.53
2022-11-27T08:17:42.047Z,7.97
2022-11-27T08:20:08.817Z,7.32
2022-11-27T08:22:35.398Z,9.70
2022-11-27T08:25:01.796Z,14.63
2022-11-27T08:27:28.259Z,16.88
2022-11-27T08:29:54.631Z,16.95
2022-11-27T08:32:21.093Z,19.02
2022-11-27T08:34:47.482Z,11.10
2022-11-27T08:37:13.931Z,11.02
2022-11-27T08:39:40.412Z,9.73
2022-11-27T08:42:06.851Z,9.57
2022-11-27T08:44:33.268Z,13.88
2022-11-27T08:46:59.742Z,9.23
2022-11-27T08:49:26.180Z,21.70
2022-11-27T08:51:52.715Z,17.85
2022-11-27T08:54:19.134Z,10.60
2022-11-27T08:56:45.532Z,17.83
2022-11-27T08:59:11.967Z,10.00
2022-11-27T09:01:38.507Z,16.27
2022-11-27T09:04:05.128Z,12.07
2022-11-27T09:06:36.268Z,10.23
2022-11-27T09:09:05.607Z,13.18
2022-11-27T09:11:33.084Z,11.13
2022-11-27T09:14:01.023Z,15.23
2022-11-27T09:16:29.081Z,9.70
2022-11-27T09:18:56.023Z,9.77
2022-11-27T09:21:27.102Z,11.50
2022-11-27T09:23:55.019Z,9.38
2022-11-27T09:26:23.760Z,8.32
2022-11-27T09:28:50.340Z,7.82
2022-11-27T09:31:16.800Z,9.18
2022-11-27T09:33:44.214Z,11.52
2022-11-27T09:36:16.191Z,12.35
2022-11-27T09:38:42.739Z,9.50
2022-11-27T09:41:48.905Z,11.55
2022-11-27T09:44:45.212Z,8.35
2022-11-27T09:47:21.340Z,8.18
2022-11-27T09:49:58.871Z,10.55
2022-11-27T09:52:44.181Z,10.50
2022-11-27T09:55:21.210Z,7.50
2022-11-27T09:58:00.691Z,7.90
2022-11-27T10:00:27.362Z,10.05
2022-11-27T10:02:54.314Z,11.95
2022-11-27T10:05:33.108Z,7.35
2022-11-27T10:08:27.209Z,7.90
2022-11-27T10:11:12.863Z,14.27
2022-11-27T10:13:54.792Z,10.73
2022-11-27T10:16:42.855Z,7.68
2022-11-27T10:19:39.486Z,10.75
2022-11-27T10:22:21.170Z,7.28
2022-11-27T10:25:16.777Z,12.52
2022-11-27T10:28:06.642Z,10.48
2022-11-27T10:30:39.420Z,11.00
2022-11-27T10:33:17.759Z,13.70
2022-11-27T10:35:47.782Z,15.05
2022-11-27T10:38:36.137Z,15.05
2022-11-27T10:41:23.531Z,8.50
2022-11-27T10:44:01.806Z,8.82
2022-11-27T10:46:32.137Z,8.40
2022-11-27T10:48:58.548Z,10.40
2022-11-27T10:51:31.195Z,9.32
2022-11-27T10:54:00.757Z,11.40
2022-11-27T10:56:58.851Z,8.20
2022-11-27T10:59:33.175Z,7.57
2022-11-27T11:02:03.233Z,7.25
2022-11-27T11:04:37.978Z,6.60
2022-11-27T11:07:29.281Z,7.47
2022-11-27T11:09:56.374Z,7.03
2022-11-27T11:12:23.917Z,6.75
2022-11-27T11:14:58.986Z,6.53
2022-11-27T11:17:28.030Z,6.13
2022-11-27T11:19:54.809Z,7.30
2022-11-27T11:22:21.604Z,6.78
2022-11-27T11:24:50.979Z,7.20
2022-11-27T11:27:23.081Z,8.52
2022-11-27T11:29:53.306Z,8.50
2022-11-27T11:32:19.687Z,6.88
2022-11-27T11:34:59.232Z,6.80
2022-11-27T11:37:30.357Z,6.72
2022-11-27T11:40:00.891Z,6.38
2022-11-27T11:42:32.419Z,6.67
2022-11-27T11:45:06.626Z,8.02
2022-11-27T11:47:33.195Z,7.72
2022-11-27T11:49:59.619Z,10.90
2022-11-27T11:52:35.185Z,8.70
2022-11-27T11:55:13.842Z,8.55
2022-11-27T11:58:03.825Z,10.80
2022-11-27T12:00:58.401Z,11.57
2022-11-27T12:03:38.917Z,10.48
2022-11-27T12:06:31.290Z,11.80
2022-11-27T12:09:10.249Z,11.43
2022-11-27T12:11:50.488Z,10.50
2022-11-27T12:14:38.845Z,8.85
2022-11-27T12:17:20.492Z,8.68
2022-11-27T12:20:25.956Z,8.80
2022-11-27T12:23:16.271Z,8.98
2022-11-27T12:26:14.231Z,8.45
2022-11-27T12:29:08.328Z,9.98
2022-11-27T12:31:59.207Z,8.25
2022-11-27T12:34:28.533Z,8.63
2022-11-27T12:37:13.893Z,7.68
2022-11-27T12:39:56.928Z,9.02
2022-11-27T12:42:32.134Z,8.63
2022-11-27T12:45:12.506Z,8.68
2022-11-27T12:47:43.127Z,8.45
2022-11-27T12:50:20.456Z,8.98
2022-11-27T12:52:59.534Z,7.47
2022-11-27T12:55:30.276Z,8.07
2022-11-27T12:58:03.407Z,8.00
2022-11-27T13:00:31.953Z,7.63
2022-11-27T13:03:15.943Z,7.93
2022-11-27T13:05:49.817Z,8.43
2022-11-27T13:08:24.097Z,11.13
2022-11-27T13:11:01.429Z,8.13
2022-11-27T13:13:51.896Z,7.63
2022-11-27T13:16:46.691Z,8.07
2022-11-27T13:19:28.802Z,7.97
2022-11-27T13:21:57.688Z,8.77
2022-11-27T13:24:26.553Z,7.85
2022-11-27T13:27:09.863Z,9.50
2022-11-27T13:29:47.739Z,8.13
2022-11-27T13:32:27.445Z,8.65
2022-11-27T13:34:57.614Z,8.57
2022-11-27T13:37:33.403Z,8.93
2022-11-27T13:40:16.529Z,8.55
2022-11-27T13:42:45.630Z,9.05
2022-11-27T13:45:21.866Z,9.20
2022-11-27T13:47:50.512Z,9.40
2022-11-27T13:50:21.606Z,8.73
2022-11-27T13:52:57.206Z,9.02
2022-11-27T13:55:33.043Z,9.68
2022-11-27T13:58:01.262Z,9.07
2022-11-27T14:00:45.862Z,9.02
2022-11-27T14:03:28.132Z,9.77
2022-11-27T14:05:56.034Z,11.60
2022-11-27T14:08:27.135Z,12.07
2022-11-27T14:11:08.687Z,12.02
2022-11-27T14:13:39.350Z,11.38
2022-11-27T14:16:23.993Z,11.18
2022-11-27T14:18:53.358Z,11.25
2022-11-27T14:21:38.913Z,10.05
2022-11-27T14:24:27.625Z,13.50
2022-11-27T14:26:54.964Z,12.05
2022-11-27T14:29:23.155Z,10.82
2022-11-27T14:31:58.207Z,10.88
2022-11-27T14:34:32.009Z,11.60
2022-11-27T14:36:59.716Z,12.23
2022-11-27T14:39:30.893Z,15.02
2022-11-27T14:42:02.592Z,19.42
2022-11-27T14:44:29.691Z,12.80
2022-11-27T14:46:58.260Z,15.95
2022-11-27T14:49:26.911Z,16.80
2022-11-27T14:51:54.514Z,13.43
2022-11-27T14:54:31.397Z,15.68
2022-11-27T14:56:58.448Z,14.50
2022-11-27T14:59:25.804Z,17.13
2022-11-27T15:02:18.273Z,13.00
2022-11-27T15:04:46.622Z,12.60
2022-11-27T15:07:21.305Z,13.05
2022-11-27T15:09:51.143Z,14.98
2022-11-27T15:12:19.194Z,20.73
2022-11-27T15:14:54.670Z,14.25
2022-11-27T15:17:27.002Z,16.92
2022-11-27T15:19:54.693Z,19.08
2022-11-27T15:22:21.759Z,19.30
2022-11-27T15:25:01.944Z,19.77
2022-11-27T15:27:31.875Z,20.25
2022-11-27T15:30:12.102Z,23.08
2022-11-27T15:32:55.334Z,27.15
2022-11-27T15:35:29.991Z,20.80
2022-11-27T15:37:58.074Z,19.80
2022-11-27T15:40:33.559Z,26.33
2022-11-27T15:43:00.011Z,22.02
2022-11-27T15:45:32.406Z,20.27
2022-11-27T15:48:00.885Z,18.48
2022-11-27T15:50:29.453Z,22.50
2022-11-27T15:52:56.284Z,23.58
2022-11-27T15:55:23.426Z,17.00
2022-11-27T15:57:49.855Z,17.33
2022-11-27T16:00:16.801Z,15.60
2022-11-27T16:02:43.308Z,15.75
2022-11-27T16:05:09.972Z,20.63
2022-11-27T16:07:36.467Z,22.88
2022-11-27T16:10:03.430Z,20.67
2022-11-27T16:12:29.904Z,24.50
2022-11-27T16:14:56.291Z,18.45
2022-11-27T16:17:22.669Z,20.80
2022-11-27T16:19:49.332Z,20.95
2022-11-27T16:22:15.776Z,20.77
2022-11-27T16:24:42.587Z,22.55
2022-11-27T16:27:09.632Z,22.67
2022-11-27T16:29:36.044Z,19.67
2022-11-27T16:32:02.589Z,18.00
2022-11-27T16:34:29.240Z,19.13
2022-11-27T16:36:55.689Z,19.60
2022-11-27T16:39:23.321Z,20.95
2022-11-27T16:41:49.749Z,20.98
2022-11-27T16:44:17.985Z,27.08
2022-11-27T16:46:44.566Z,20.33
2022-11-27T16:49:12.021Z,21.67
2022-11-27T16:51:39.929Z,26.55
2022-11-27T16:54:11.844Z,25.63
2022-11-27T16:56:40.600Z,23.85
2022-11-27T16:59:09.654Z,21.33
2022-11-27T17:01:37.144Z,31.30
2022-11-27T17:04:06.982Z,21.73
2022-11-27T17:06:33.786Z,23.15
2022-11-27T17:09:02.251Z,27.48
2022-11-27T17:11:33.656Z,25.25
2022-11-27T17:14:03.797Z,23.02
2022-11-27T17:16:31.081Z,31.63
2022-11-27T17:18:58.445Z,24.38
2022-11-27T17:21:31.827Z,26.83
2022-11-27T17:24:04.458Z,16.75
2022-11-27T17:26:38.545Z,24.85
2022-11-27T17:29:05.021Z,25.27
2022-11-27T17:31:33.547Z,22.60
2022-11-27T17:34:00.448Z,22.98
2022-11-27T17:36:36.468Z,26.48
2022-11-27T17:39:05.413Z,26.75
2022-11-27T17:41:32.802Z,28.13
2022-11-27T17:43:59.350Z,17.70
2022-11-27T17:46:27.736Z,34.92
2022-11-27T17:48:57.848Z,20.60
2022-11-27T17:51:24.618Z,21.77
2022-11-27T17:53:51.340Z,22.48
2022-11-27T17:56:20.444Z,24.90
2022-11-27T17:58:47.358Z,29.33
2022-11-27T18:01:19.473Z,25.45
2022-11-27T18:03:46.902Z,21.33
2022-11-27T18:06:17.040Z,16.08
2022-11-27T18:08:44.791Z,21.13
2022-11-27T18:11:17.775Z,19.45
2022-11-27T18:13:44.942Z,20.05
2022-11-27T18:16:15.574Z,21.00
2022-11-27T18:18:43.510Z,22.92
2022-11-27T18:21:18.101Z,19.20
2022-11-27T18:24:20.887Z,22.25
2022-11-27T18:27:00.423Z,22.85
2022-11-27T18:29:20.815Z,20.15
2022-11-27T18:31:47.650Z,19.23
2022-11-27T18:34:14.284Z,19.85
2022-11-27T18:36:40.669Z,22.90
2022-11-27T18:39:07.091Z,23.80
2022-11-27T18:41:34.632Z,20.45
2022-11-27T18:44:01.962Z,26.75
2022-11-27T18:46:29.617Z,27.45
2022-11-27T18:48:56.130Z,26.25
2022-11-27T18:51:24.572Z,29.65
2022-11-27T18:53:52.166Z,23.40
2022-11-27T18:56:21.779Z,22.17
2022-11-27T18:58:49.091Z,27.98
2022-11-27T19:01:25.438Z,23.27
2022-11-27T19:03:52.431Z,22.60
2022-11-27T19:06:20.625Z,22.35
2022-11-27T19:08:48.243Z,25.23
2022-11-27T19:11:17.491Z,31.52
2022-11-27T19:13:45.385Z,31.25
2022-11-27T19:16:22.646Z,30.00
2022-11-27T19:18:49.553Z,30.63
2022-11-27T19:21:21.300Z,27.45
2022-11-27T19:23:50.549Z,32.63
2022-11-27T19:26:20.169Z,27.98
2022-11-27T19:28:52.645Z,27.70
2022-11-27T19:31:20.084Z,28.55
2022-11-27T19:33:52.367Z,25.30
2022-11-27T19:36:19.500Z,24.88
2022-11-27T19:38:46.178Z,22.52
2022-11-27T19:41:17.763Z,25.48
2022-11-27T19:43:45.184Z,24.65
2022-11-27T19:46:25.563Z,22.85
2022-11-27T19:48:56.665Z,20.45
2022-11-27T19:51:24.224Z,22.55
2022-11-27T19:53:50.882Z,21.20
2022-11-27T19:56:17.725Z,21.00
2022-11-27T19:58:44.395Z,23.15
2022-11-27T20:01:17.286Z,26.17
2022-11-27T20:03:44.727Z,26.38
2022-11-27T20:06:18.580Z,27.55
2022-11-27T20:08:46.921Z,27.95
2022-11-27T20:11:16.144Z,26.02
2022-11-27T20:13:42.833Z,27.75
2022-11-27T20:16:11.621Z,26.85
2022-11-27T20:18:38.247Z,18.63
2022-11-27T20:21:11.373Z,22.50
2022-11-27T20:23:38.698Z,21.95
2022-11-27T20:26:07.037Z,20.52
2022-11-27T20:28:34.209Z,21.30
2022-11-27T20:31:01.928Z,25.77
2022-11-27T20:33:29.932Z,20.40
2022-11-27T20:35:56.965Z,21.73
2022-11-27T20:38:24.558Z,20.88
2022-11-27T20:40:51.267Z,24.80
2022-11-27T20:43:19.107Z,21.23
2022-11-27T20:45:46.462Z,19.00
2022-11-27T20:48:13.021Z,20.42
2022-11-27T20:50:39.939Z,19.75
2022-11-27T20:53:06.905Z,28.55
2022-11-27T20:55:34.283Z,21.33
2022-11-27T20:58:00.767Z,22.73
2022-11-27T21:00:27.550Z,19.77
2022-11-27T21:02:54.164Z,18.70
2022-11-27T21:05:20.737Z,24.27
2022-11-27T21:07:47.267Z,17.75
2022-11-27T21:10:16.572Z,22.10
2022-11-27T21:12:43.460Z,22.90
2022-11-27T21:15:10.410Z,18.85
2022-11-27T21:17:36.980Z,19.60
2022-11-27T21:20:04.372Z,20.70
2022-11-27T21:22:31.510Z,22.40
2022-11-27T21:24:59.326Z,20.83
2022-11-27T21:27:27.601Z,18.65
2022-11-27T21:29:53.975Z,23.88
2022-11-27T21:32:22.595Z,24.55
2022-11-27T21:34:49.223Z,24.60
2022-11-27T21:37:15.647Z,24.73
2022-11-27T21:39:44.064Z,23.40
2022-11-27T21:42:10.999Z,20.40
2022-11-27T21:44:41.252Z,18.83
2022-11-27T21:47:11.940Z,21.85
2022-11-27T21:49:39.900Z,20.77
2022-11-27T21:52:08.470Z,23.35
2022-11-27T21:54:35.911Z,24.20
2022-11-27T21:57:02.456Z,22.20
2022-11-27T21:59:28.925Z,23.60
2022-11-27T22:01:57.195Z,20.05
2022-11-27T22:04:25.215Z,20.85
2022-11-27T22:06:51.645Z,21.98
2022-11-27T22:09:18.464Z,28.13
2022-11-27T22:11:46.421Z,25.38
2022-11-27T22:14:14.888Z,24.65
2022-11-27T22:16:45.761Z,21.27
2022-11-27T22:19:14.422Z,23.02
2022-11-27T22:21:41.231Z,22.65
2022-11-27T22:24:12.155Z,21.42
2022-11-27T22:26:43.276Z,21.77
2022-11-27T22:29:09.711Z,25.67
2022-11-27T22:31:36.605Z,22.15
2022-11-27T22:34:03.780Z,19.52
2022-11-27T22:36:34.752Z,20.13
2022-11-27T22:39:05.258Z,20.65
2022-11-27T22:41:36.073Z,19.42
2022-11-27T22:44:13.916Z,19.27
2022-11-27T22:46:42.175Z,19.88
2022-11-27T22:49:11.704Z,19.52
2022-11-27T22:51:38.919Z,19.42
2022-11-27T22:54:07.220Z,20.45
2022-11-27T22:56:33.788Z,21.17
2022-11-27T22:59:30.509Z,20.35
2022-11-27T23:01:48.546Z,20.35
2022-11-27T23:04:15.984Z,18.17
2022-11-27T23:06:44.419Z,20.90
2022-11-27T23:09:11.136Z,20.17
2022-11-27T23:11:37.604Z,22.38
2022-11-27T23:14:04.009Z,29.77
2022-11-27T23:16:30.451Z,20.33
2022-11-27T23:18:57.326Z,23.92
2022-11-27T23:21:24.489Z,24.42
2022-11-27T23:23:51.606Z,24.75
2022-11-27T23:26:20.520Z,25.45
2022-11-27T23:28:49.155Z,30.23
2022-11-27T23:31:31.988Z,22.10
2022-11-27T23:34:01.256Z,20.58
2022-11-27T23:36:28.147Z,22.85
2022-11-27T23:38:54.647Z,21.83
2022-11-27T23:41:23.619Z,22.35
2022-11-27T23:43:51.411Z,25.48
2022-11-27T23:46:19.451Z,23.35
2022-11-27T23:48:46.029Z,20.45
2022-11-27T23:51:18.628Z,24.38
2022-11-27T23:53:46.167Z,20.88
2022-11-27T23:56:15.776Z,28.45
2022-11-27T23:58:47.033Z,23.92
